Itara — EA4760 — position and weather

sailwx.info

Track history (hours):
 
Tides and Currents Weather Stations Pressure Air Temp Water Temp Dewpoint Dewpoint Depression Visibility Wind Speed Wind Dir Waves Ship Positions

Itara

Last reported at 2018-Jun-21 08:30 UTC. Time now 2018-Jun-21 08:43 UTC.
Position N 28°09' W 015°25'.

Length 18 m.

Type: Port tender. MMSI: 224016190.

Date/timePositionNaut miles runAvg speedWind from/ knotsBaromVisibWave heightAir tempDewpointWater temp
2018-Jun-21 08:30N 28°09' W 015°25'0 0.0
2018-Jun-20 07:58N 28°09' W 015°25'2 4.8
2018-Jun-20 07:30N 28°07' W 015°24'3 4.9
2018-Jun-20 06:57N 28°04' W 015°23'2 2.9
2018-Jun-20 06:21N 28°06' W 015°24'2 6.4
2018-Jun-20 05:59N 28°08' W 015°25'1 0.1
2018-Jun-19 19:46N 28°09' W 015°25'2 5.6
2018-Jun-19 19:24N 28°07' W 015°24'1 2.2
2018-Jun-19 19:00N 28°08' W 015°25'1 0.3
2018-Jun-19 15:23N 28°09' W 015°25'2 4.9
2018-Jun-19 14:56N 28°07' W 015°24'2 3.4
2018-Jun-19 14:19N 28°05' W 015°23'1 3.6
2018-Jun-19 14:00N 28°04' W 015°23'2 3.9
2018-Jun-19 13:29N 28°06' W 015°24'3 5.9
2018-Jun-19 12:59N 28°08' W 015°25'0 0.1
2018-Jun-19 08:35N 28°09' W 015°25'0 3.0
2018-Jun-19 08:28N 28°08' W 015°25'3 5.2
2018-Jun-19 07:58N 28°06' W 015°24'1 2.5
2018-Jun-19 07:24N 28°05' W 015°23'0 0.6
2018-Jun-19 07:00N 28°05' W 015°23'3 5.7
2018-Jun-19 06:30N 28°07' W 015°25'1 0.1
2018-Jun-18 17:27N 28°09' W 015°25'1 3.3
2018-Jun-18 17:00N 28°07' W 015°25'0 0.5
2018-Jun-18 16:30N 28°07' W 015°24'1 2.5
2018-Jun-18 16:00N 28°08' W 015°24'1 2.7
2018-Jun-18 15:30N 28°07' W 015°25'1 2.3
2018-Jun-18 15:00N 28°08' W 015°25'0 0.1
2018-Jun-18 09:33N 28°09' W 015°25'0 4.7
2018-Jun-18 09:30N 28°09' W 015°25'2 3.0
2018-Jun-18 08:57N 28°08' W 015°24'1 1.5
2018-Jun-18 08:26N 28°08' W 015°24'1 2.7
2018-Jun-18 07:56N 28°08' W 015°25'1 3.0
2018-Jun-18 07:30N 28°09' W 015°25'  
2018-Jun-15 12:37N 28°09' W 015°25'0 0.0
2018-Jun-15 12:22N 28°09' W 015°25'0 0.0
2018-Jun-15 12:00N 28°09' W 015°25'1 1.8
2018-Jun-15 11:31N 28°08' W 015°25'1 2.1
2018-Jun-15 10:59N 28°09' W 015°24'0 0.9
2018-Jun-15 10:28N 28°09' W 015°24'1 2.1
2018-Jun-15 10:00N 28°08' W 015°24'0 0.1
2018-Jun-15 09:30N 28°08' W 015°24'0 0.1
2018-Jun-15 08:57N 28°08' W 015°24'0 0.1
2018-Jun-15 08:30N 28°08' W 015°24'1 2.8
2018-Jun-15 08:00N 28°09' W 015°25'0 0.5
2018-Jun-15 07:30N 28°09' W 015°25'0 0.0
2018-Jun-15 06:55N 28°09' W 015°25'0 0.0
2018-Jun-14 19:55N 28°09' W 015°25'2 4.5
2018-Jun-14 19:25N 28°07' W 015°24'0 0.1
2018-Jun-14 19:00N 28°07' W 015°24'0 0.1
2018-Jun-14 18:24N 28°07' W 015°24'0 0.1
2018-Jun-14 18:00N 28°07' W 015°24'2 4.6
2018-Jun-14 17:28N 28°09' W 015°25'0 0.0
2018-Jun-14 12:23N 28°09' W 015°25'2 6.3
2018-Jun-14 12:01N 28°07' W 015°24'3 5.8
2018-Jun-14 11:30N 28°04' W 015°23'0 0.4
2018-Jun-14 11:00N 28°04' W 015°22'3 5.5
2018-Jun-14 10:30N 28°06' W 015°24'3 4.7
2018-Jun-14 09:56N 28°09' W 015°25'3 6.2
2018-Jun-14 09:30N 28°06' W 015°24'3 5.3
2018-Jun-14 09:00N 28°04' W 015°23'0 0.1
2018-Jun-14 08:28N 28°04' W 015°23'3 6.5
2018-Jun-14 07:58N 28°07' W 015°25'2 3.8
2018-Jun-14 07:21N 28°09' W 015°25'0 0.0
2018-Jun-14 06:57N 28°09' W 015°25'0 0.0
2018-Jun-13 21:16N 28°09' W 015°25'0 0.0
2018-Jun-13 20:58N 28°09' W 015°25'0 0.0
2018-Jun-13 20:28N 28°09' W 015°25'  
Track history (hours):
 
Tides and Currents Weather Stations Pressure Air Temp Water Temp Dewpoint Dewpoint Depression Visibility Wind Speed Wind Dir Waves Ship Positions

Itara

Last reported at 2018-Jun-21 08:30 UTC. Time now 2018-Jun-21 08:43 UTC.
Position N 28°09' W 015°25'.

Length 18 m.

Type: Port tender. MMSI: 224016190.

Date/timePositionNaut miles runAvg speedWind from/ knotsBaromVisibWave heightAir tempDewpointWater temp
2018-Jun-21 08:30N 28°09' W 015°25'0 0.0
2018-Jun-20 07:58N 28°09' W 015°25'2 4.8
2018-Jun-20 07:30N 28°07' W 015°24'3 4.9
2018-Jun-20 06:57N 28°04' W 015°23'2 2.9
2018-Jun-20 06:21N 28°06' W 015°24'2 6.4
2018-Jun-20 05:59N 28°08' W 015°25'1 0.1
2018-Jun-19 19:46N 28°09' W 015°25'2 5.6
2018-Jun-19 19:24N 28°07' W 015°24'1 2.2
2018-Jun-19 19:00N 28°08' W 015°25'1 0.3
2018-Jun-19 15:23N 28°09' W 015°25'2 4.9
2018-Jun-19 14:56N 28°07' W 015°24'2 3.4
2018-Jun-19 14:19N 28°05' W 015°23'1 3.6
2018-Jun-19 14:00N 28°04' W 015°23'2 3.9
2018-Jun-19 13:29N 28°06' W 015°24'3 5.9
2018-Jun-19 12:59N 28°08' W 015°25'0 0.1
2018-Jun-19 08:35N 28°09' W 015°25'0 3.0
2018-Jun-19 08:28N 28°08' W 015°25'3 5.2
2018-Jun-19 07:58N 28°06' W 015°24'1 2.5
2018-Jun-19 07:24N 28°05' W 015°23'0 0.6
2018-Jun-19 07:00N 28°05' W 015°23'3 5.7
2018-Jun-19 06:30N 28°07' W 015°25'1 0.1
2018-Jun-18 17:27N 28°09' W 015°25'1 3.3
2018-Jun-18 17:00N 28°07' W 015°25'0 0.5
2018-Jun-18 16:30N 28°07' W 015°24'1 2.5
2018-Jun-18 16:00N 28°08' W 015°24'1 2.7
2018-Jun-18 15:30N 28°07' W 015°25'1 2.3
2018-Jun-18 15:00N 28°08' W 015°25'0 0.1
2018-Jun-18 09:33N 28°09' W 015°25'0 4.7
2018-Jun-18 09:30N 28°09' W 015°25'2 3.0
2018-Jun-18 08:57N 28°08' W 015°24'1 1.5
2018-Jun-18 08:26N 28°08' W 015°24'1 2.7
2018-Jun-18 07:56N 28°08' W 015°25'1 3.0
2018-Jun-18 07:30N 28°09' W 015°25'  
2018-Jun-15 12:37N 28°09' W 015°25'0 0.0
2018-Jun-15 12:22N 28°09' W 015°25'0 0.0
2018-Jun-15 12:00N 28°09' W 015°25'1 1.8
2018-Jun-15 11:31N 28°08' W 015°25'1 2.1
2018-Jun-15 10:59N 28°09' W 015°24'0 0.9
2018-Jun-15 10:28N 28°09' W 015°24'1 2.1
2018-Jun-15 10:00N 28°08' W 015°24'0 0.1
2018-Jun-15 09:30N 28°08' W 015°24'0 0.1
2018-Jun-15 08:57N 28°08' W 015°24'0 0.1
2018-Jun-15 08:30N 28°08' W 015°24'1 2.8
2018-Jun-15 08:00N 28°09' W 015°25'0 0.5
2018-Jun-15 07:30N 28°09' W 015°25'0 0.0
2018-Jun-15 06:55N 28°09' W 015°25'0 0.0
2018-Jun-14 19:55N 28°09' W 015°25'2 4.5
2018-Jun-14 19:25N 28°07' W 015°24'0 0.1
2018-Jun-14 19:00N 28°07' W 015°24'0 0.1
2018-Jun-14 18:24N 28°07' W 015°24'0 0.1
2018-Jun-14 18:00N 28°07' W 015°24'2 4.6
2018-Jun-14 17:28N 28°09' W 015°25'0 0.0
2018-Jun-14 12:23N 28°09' W 015°25'2 6.3
2018-Jun-14 12:01N 28°07' W 015°24'3 5.8
2018-Jun-14 11:30N 28°04' W 015°23'0 0.4
2018-Jun-14 11:00N 28°04' W 015°22'3 5.5
2018-Jun-14 10:30N 28°06' W 015°24'3 4.7
2018-Jun-14 09:56N 28°09' W 015°25'3 6.2
2018-Jun-14 09:30N 28°06' W 015°24'3 5.3
2018-Jun-14 09:00N 28°04' W 015°23'0 0.1
2018-Jun-14 08:28N 28°04' W 015°23'3 6.5
2018-Jun-14 07:58N 28°07' W 015°25'2 3.8
2018-Jun-14 07:21N 28°09' W 015°25'0 0.0
2018-Jun-14 06:57N 28°09' W 015°25'0 0.0
2018-Jun-13 21:16N 28°09' W 015°25'0 0.0
2018-Jun-13 20:58N 28°09' W 015°25'0 0.0
2018-Jun-13 20:28N 28°09' W 015°25'  

Dump ship's entire track history